createdAt,value
2019-02-22T00:01:58.785Z,9.90
2019-02-22T00:04:25.263Z,10.00
2019-02-22T00:06:51.431Z,10.00
2019-02-22T00:09:17.592Z,9.90
2019-02-22T00:11:43.737Z,9.90
2019-02-22T00:14:10.173Z,9.90
2019-02-22T00:16:36.624Z,10.00
2019-02-22T00:19:02.780Z,10.00
2019-02-22T00:21:28.928Z,10.00
2019-02-22T00:23:55.084Z,9.90
2019-02-22T00:26:21.219Z,10.00
2019-02-22T00:28:47.648Z,9.90
2019-02-22T00:31:13.801Z,9.90
2019-02-22T00:33:39.963Z,9.90
2019-02-22T00:36:06.115Z,9.90
2019-02-22T00:38:32.498Z,9.90
2019-02-22T00:40:58.660Z,10.00
2019-02-22T00:43:24.957Z,9.90
2019-02-22T00:45:51.216Z,10.00
2019-02-22T00:48:17.356Z,10.00
2019-02-22T00:50:43.519Z,10.00
2019-02-22T00:53:09.659Z,10.10
2019-02-22T00:55:35.856Z,10.00
2019-02-22T00:58:02.070Z,9.90
2019-02-22T01:00:28.227Z,9.90
2019-02-22T01:02:54.644Z,9.90
2019-02-22T01:05:20.807Z,9.90
2019-02-22T01:07:46.979Z,9.80
2019-02-22T01:10:13.127Z,9.80
2019-02-22T01:12:39.474Z,9.80
2019-02-22T01:15:05.887Z,9.80
2019-02-22T01:17:32.155Z,9.90
2019-02-22T01:19:58.302Z,9.80
2019-02-22T01:22:24.456Z,9.80
2019-02-22T01:24:50.600Z,9.70
2019-02-22T01:27:16.762Z,9.80
2019-02-22T01:29:42.900Z,9.70
2019-02-22T01:32:09.079Z,9.70
2019-02-22T01:34:35.234Z,9.70
2019-02-22T01:37:01.407Z,9.70
2019-02-22T01:39:27.881Z,9.70
2019-02-22T01:41:54.033Z,9.60
2019-02-22T01:44:21.284Z,9.70
2019-02-22T01:46:47.783Z,9.60
2019-02-22T01:49:14.027Z,9.70
2019-02-22T01:51:40.183Z,9.70
2019-02-22T01:54:06.336Z,9.70
2019-02-22T01:56:32.493Z,9.70
2019-02-22T01:58:58.647Z,9.70
2019-02-22T02:01:25.055Z,9.70
2019-02-22T02:03:51.215Z,9.80
2019-02-22T02:06:17.407Z,9.70
2019-02-22T02:08:43.567Z,9.70
2019-02-22T02:11:09.767Z,9.70
2019-02-22T02:13:36.200Z,9.70
2019-02-22T02:16:02.345Z,9.70
2019-02-22T02:18:29.519Z,9.70
2019-02-22T02:20:55.720Z,9.70
2019-02-22T02:23:21.937Z,9.70
2019-02-22T02:25:48.076Z,9.70
2019-02-22T02:28:14.223Z,9.70
2019-02-22T02:30:40.368Z,9.70
2019-02-22T02:33:06.528Z,9.70
2019-02-22T02:35:32.674Z,9.70
2019-02-22T02:37:58.847Z,9.70
2019-02-22T02:40:24.992Z,9.70
2019-02-22T02:42:51.150Z,9.70
2019-02-22T02:45:17.288Z,9.70
2019-02-22T02:47:43.462Z,9.70
2019-02-22T02:50:15.029Z,9.70
2019-02-22T02:52:41.190Z,9.60
2019-02-22T02:55:30.057Z,9.60
2019-02-22T02:57:56.212Z,9.60
2019-02-22T03:00:22.343Z,9.60
2019-02-22T03:02:48.744Z,9.60
2019-02-22T03:05:14.905Z,9.60
2019-02-22T03:07:42.263Z,9.60
2019-02-22T03:10:08.423Z,9.60
2019-02-22T03:12:34.561Z,9.60
2019-02-22T03:15:00.777Z,9.60
2019-02-22T03:17:26.959Z,9.60
2019-02-22T03:19:53.442Z,9.60
2019-02-22T03:22:19.584Z,9.60
2019-02-22T03:24:45.743Z,9.60
2019-02-22T03:27:11.883Z,9.60
2019-02-22T03:29:38.055Z,9.60
2019-02-22T03:32:04.192Z,9.60
2019-02-22T03:34:30.621Z,9.60
2019-02-22T03:36:56.752Z,9.60
2019-02-22T03:39:22.924Z,9.60
2019-02-22T03:41:49.055Z,9.60
2019-02-22T03:44:15.239Z,9.50
2019-02-22T03:46:41.400Z,9.50
2019-02-22T03:49:07.553Z,9.60
2019-02-22T03:51:33.715Z,9.60
2019-02-22T03:54:00.150Z,9.50
2019-02-22T03:56:26.286Z,9.50
2019-02-22T03:58:52.790Z,9.60
2019-02-22T04:01:19.036Z,9.60
2019-02-22T04:03:45.178Z,9.60
2019-02-22T04:06:11.583Z,9.60
2019-02-22T04:08:37.742Z,9.60
2019-02-22T04:11:03.886Z,9.70
2019-02-22T04:13:30.027Z,9.60
2019-02-22T04:15:56.172Z,9.60
2019-02-22T04:18:22.322Z,9.60
2019-02-22T04:20:48.763Z,9.70
2019-02-22T04:23:14.908Z,9.70
2019-02-22T04:25:41.083Z,9.70
2019-02-22T04:28:07.282Z,9.70
2019-02-22T04:30:33.757Z,9.70
2019-02-22T04:32:59.912Z,9.60
2019-02-22T04:35:26.302Z,9.60
2019-02-22T04:37:52.479Z,9.80
2019-02-22T04:40:18.616Z,9.90
2019-02-22T04:42:44.814Z,9.80
2019-02-22T04:45:11.188Z,9.80
2019-02-22T04:47:37.347Z,9.80
2019-02-22T04:50:04.888Z,9.70
2019-02-22T04:52:31.048Z,9.70
2019-02-22T04:54:57.439Z,9.60
2019-02-22T04:57:23.684Z,9.70
2019-02-22T04:59:49.835Z,9.60
2019-02-22T05:02:16.242Z,9.70
2019-02-22T05:04:42.386Z,9.70
2019-02-22T05:07:08.526Z,9.90
2019-02-22T05:09:35.670Z,10.00
2019-02-22T05:12:10.858Z,10.10
2019-02-22T05:14:30.968Z,10.00
2019-02-22T05:16:57.117Z,10.00
2019-02-22T05:19:23.501Z,10.00
2019-02-22T05:21:49.635Z,9.90
2019-02-22T05:24:16.019Z,9.90
2019-02-22T05:26:42.175Z,9.80
2019-02-22T05:29:08.333Z,9.80
2019-02-22T05:31:34.461Z,9.80
2019-02-22T05:34:00.610Z,9.70
2019-02-22T05:36:26.753Z,9.60
2019-02-22T05:38:52.897Z,9.60
2019-02-22T05:41:19.031Z,9.70
2019-02-22T05:43:45.417Z,9.60
2019-02-22T05:46:11.562Z,9.60
2019-02-22T05:48:38.884Z,9.70
2019-02-22T05:51:05.155Z,9.70
2019-02-22T05:53:31.550Z,9.60
2019-02-22T05:55:57.697Z,9.60
2019-02-22T05:58:23.845Z,9.60
2019-02-22T06:00:49.980Z,9.50
2019-02-22T06:03:16.369Z,9.50
2019-02-22T06:05:42.763Z,9.50
2019-02-22T06:08:09.221Z,9.60
2019-02-22T06:10:35.737Z,9.60
2019-02-22T06:13:01.963Z,9.60
2019-02-22T06:15:28.103Z,9.60
2019-02-22T06:17:54.388Z,9.60
2019-02-22T06:20:20.918Z,9.60
2019-02-22T06:22:47.068Z,9.70
2019-02-22T06:25:13.212Z,9.80
2019-02-22T06:27:39.364Z,9.90
2019-02-22T06:30:08.118Z,9.90
2019-02-22T06:32:34.511Z,9.80
2019-02-22T06:35:00.659Z,9.70
2019-02-22T06:37:26.808Z,9.70
2019-02-22T06:39:52.963Z,9.60
2019-02-22T06:42:19.108Z,9.70
2019-02-22T06:44:45.271Z,9.70
2019-02-22T06:47:11.422Z,9.70
2019-02-22T06:49:37.583Z,9.70
2019-02-22T06:52:03.735Z,9.70
2019-02-22T06:54:32.075Z,9.70
2019-02-22T06:56:58.222Z,9.70
2019-02-22T06:59:24.383Z,9.70
2019-02-22T07:01:50.526Z,9.70
2019-02-22T07:04:17.012Z,9.80
2019-02-22T07:06:43.163Z,9.80
2019-02-22T07:09:09.311Z,9.80
2019-02-22T07:11:43.368Z,9.80
2019-02-22T07:14:09.522Z,9.80
2019-02-22T07:16:35.683Z,10.00
2019-02-22T07:19:01.840Z,10.10
2019-02-22T07:21:38.858Z,10.20
2019-02-22T07:23:56.288Z,10.10
2019-02-22T07:26:22.431Z,10.00
2019-02-22T07:28:48.597Z,10.00
2019-02-22T07:31:14.743Z,10.00
2019-02-22T07:33:40.894Z,10.00
2019-02-22T07:36:07.069Z,10.00
2019-02-22T07:38:33.211Z,10.00
2019-02-22T07:40:59.587Z,10.10
2019-02-22T07:43:25.730Z,10.10
2019-02-22T07:45:51.882Z,10.20
2019-02-22T07:48:18.031Z,10.10
2019-02-22T07:50:44.189Z,10.20
2019-02-22T07:53:10.326Z,10.20
2019-02-22T07:55:36.479Z,10.30
2019-02-22T07:58:02.628Z,10.30
2019-02-22T08:00:28.783Z,10.30
2019-02-22T08:02:54.927Z,10.30
2019-02-22T08:05:21.095Z,10.30
2019-02-22T08:07:47.243Z,10.30
2019-02-22T08:10:13.430Z,10.40
2019-02-22T08:12:39.583Z,10.40
2019-02-22T08:15:08.286Z,10.50
2019-02-22T08:17:34.770Z,10.50
2019-02-22T08:20:01.270Z,10.40
2019-02-22T08:22:27.619Z,10.30
2019-02-22T08:24:53.815Z,10.30
2019-02-22T08:27:19.947Z,10.30
2019-02-22T08:29:46.106Z,10.40
2019-02-22T08:32:12.566Z,10.50
2019-02-22T08:34:38.736Z,10.40
2019-02-22T08:37:05.000Z,10.40
2019-02-22T08:39:31.188Z,10.40
2019-02-22T08:41:57.636Z,10.40
2019-02-22T08:44:23.780Z,10.50
2019-02-22T08:46:50.187Z,10.50
2019-02-22T08:49:16.323Z,10.50
2019-02-22T08:51:42.476Z,10.50
2019-02-22T08:54:08.621Z,10.50
2019-02-22T08:56:34.800Z,10.40
2019-02-22T08:59:01.328Z,10.50
2019-02-22T09:01:27.494Z,10.50
2019-02-22T09:03:53.698Z,10.50
2019-02-22T09:06:19.868Z,10.50
2019-02-22T09:08:46.344Z,10.50
2019-02-22T09:11:12.773Z,10.40
2019-02-22T09:13:43.629Z,10.40
2019-02-22T09:16:07.280Z,10.30
2019-02-22T09:18:34.530Z,10.40
2019-02-22T09:21:00.739Z,10.40
2019-02-22T09:23:26.905Z,10.50
2019-02-22T09:25:53.158Z,10.50
2019-02-22T09:28:19.561Z,10.50
2019-02-22T09:30:45.815Z,10.40
2019-02-22T09:33:11.965Z,10.40
2019-02-22T09:35:38.477Z,10.30
2019-02-22T09:38:05.329Z,10.50
2019-02-22T09:40:31.477Z,10.50
2019-02-22T09:42:57.623Z,10.40
2019-02-22T09:45:24.590Z,10.40
2019-02-22T09:47:51.069Z,10.30
2019-02-22T09:50:17.244Z,10.40
2019-02-22T09:52:43.410Z,10.40
2019-02-22T09:55:11.264Z,10.50
2019-02-22T09:57:37.670Z,10.80
2019-02-22T10:00:10.491Z,11.00
2019-02-22T10:02:36.659Z,11.00
2019-02-22T10:05:05.022Z,11.10
2019-02-22T10:07:31.198Z,11.10
2019-02-22T10:09:58.347Z,11.10
2019-02-22T10:12:24.537Z,11.20
2019-02-22T10:14:50.690Z,11.00
2019-02-22T10:17:16.851Z,11.00
2019-02-22T10:19:43.023Z,11.00
2019-02-22T10:22:09.282Z,11.00
2019-02-22T10:24:35.431Z,11.00
2019-02-22T10:27:01.936Z,11.00
2019-02-22T10:29:29.281Z,11.10
2019-02-22T10:31:55.440Z,11.20
2019-02-22T10:34:21.577Z,11.30
2019-02-22T10:36:48.086Z,11.30
2019-02-22T10:39:14.296Z,11.40
2019-02-22T10:41:40.438Z,11.30
2019-02-22T10:44:17.072Z,11.40
2019-02-22T10:46:34.871Z,11.40
2019-02-22T10:49:01.018Z,11.40
2019-02-22T10:51:27.172Z,11.50
2019-02-22T10:53:53.623Z,11.60
2019-02-22T10:56:20.014Z,11.60
2019-02-22T10:58:46.147Z,11.60
2019-02-22T11:01:12.314Z,11.80
2019-02-22T11:03:38.467Z,11.70
2019-02-22T11:06:04.636Z,11.70
2019-02-22T11:08:30.801Z,11.70
2019-02-22T11:10:56.959Z,11.60
2019-02-22T11:13:23.112Z,11.50
2019-02-22T11:15:50.006Z,11.60
2019-02-22T11:18:16.140Z,11.70
2019-02-22T11:20:42.296Z,11.60
2019-02-22T11:23:08.778Z,11.60
2019-02-22T11:25:34.939Z,11.70
2019-02-22T11:28:02.088Z,11.60
2019-02-22T11:30:28.253Z,11.70
2019-02-22T11:32:54.412Z,11.80
2019-02-22T11:35:20.567Z,11.80
2019-02-22T11:37:47.698Z,11.80
2019-02-22T11:40:13.879Z,11.90
2019-02-22T11:42:40.357Z,11.90
2019-02-22T11:45:08.204Z,12.10
2019-02-22T11:47:34.347Z,12.00
2019-02-22T11:50:00.500Z,12.10
2019-02-22T11:52:26.647Z,12.20
2019-02-22T11:54:52.796Z,12.10
2019-02-22T11:57:20.264Z,12.10
2019-02-22T11:59:46.504Z,12.10
2019-02-22T12:02:12.671Z,12.10
2019-02-22T12:04:38.832Z,12.20
2019-02-22T12:07:05.019Z,12.40
2019-02-22T12:09:31.170Z,12.40
2019-02-22T12:11:57.339Z,12.40
2019-02-22T12:14:23.506Z,12.50
2019-02-22T12:16:49.675Z,12.60
2019-02-22T12:19:16.130Z,12.70
2019-02-22T12:21:42.311Z,12.70
2019-02-22T12:24:08.493Z,12.70
2019-02-22T12:26:34.639Z,12.80
2019-02-22T12:29:00.791Z,12.90
2019-02-22T12:31:27.022Z,13.10
2019-02-22T12:33:53.289Z,13.20
2019-02-22T12:36:19.838Z,13.30
2019-02-22T12:38:45.989Z,13.20
2019-02-22T12:41:12.139Z,13.40
2019-02-22T12:43:38.317Z,13.40
2019-02-22T12:46:04.477Z,13.50
2019-02-22T12:48:30.886Z,13.60
2019-02-22T12:50:57.071Z,13.50
2019-02-22T12:53:23.235Z,13.60
2019-02-22T12:55:49.388Z,13.50
2019-02-22T12:58:15.546Z,13.50
2019-02-22T13:00:41.700Z,13.50
2019-02-22T13:03:07.855Z,13.50
2019-02-22T13:05:34.002Z,13.50
2019-02-22T13:08:00.167Z,13.50
2019-02-22T13:10:26.324Z,13.60
2019-02-22T13:12:52.747Z,13.50
2019-02-22T13:15:18.913Z,13.50
2019-02-22T13:17:45.067Z,13.40
2019-02-22T13:20:11.233Z,13.40
2019-02-22T13:22:37.383Z,13.50
2019-02-22T13:25:07.178Z,13.50
2019-02-22T13:27:33.351Z,13.50
2019-02-22T13:29:59.538Z,13.60
2019-02-22T13:32:25.683Z,13.60
2019-02-22T13:34:51.915Z,13.60
2019-02-22T13:37:18.070Z,13.70
2019-02-22T13:39:44.247Z,13.70
2019-02-22T13:42:10.402Z,13.80
2019-02-22T13:44:36.570Z,13.80
2019-02-22T13:47:02.730Z,13.90
2019-02-22T13:49:28.877Z,13.90
2019-02-22T13:51:55.401Z,14.00
2019-02-22T13:54:21.597Z,14.10
2019-02-22T13:56:48.184Z,14.00
2019-02-22T13:59:14.403Z,14.00
2019-02-22T14:01:40.563Z,14.10
2019-02-22T14:04:06.739Z,14.20
2019-02-22T14:06:32.884Z,14.10
2019-02-22T14:08:59.048Z,14.00
2019-02-22T14:11:25.238Z,14.00
2019-02-22T14:13:51.394Z,14.00
2019-02-22T14:16:17.627Z,14.00
2019-02-22T14:18:43.787Z,14.00
2019-02-22T14:21:09.943Z,14.00
2019-02-22T14:23:36.093Z,14.00
2019-02-22T14:26:02.579Z,14.00
2019-02-22T14:28:28.723Z,14.10
2019-02-22T14:30:54.877Z,14.10
2019-02-22T14:33:21.025Z,14.10
2019-02-22T14:35:47.190Z,14.10
2019-02-22T14:38:13.632Z,14.10
2019-02-22T14:40:39.833Z,14.20
2019-02-22T14:43:16.198Z,14.10
2019-02-22T14:45:34.040Z,14.10
2019-02-22T14:48:00.223Z,14.00
2019-02-22T14:50:26.699Z,14.00
2019-02-22T14:52:52.859Z,14.00
2019-02-22T14:55:18.996Z,14.00
2019-02-22T14:57:45.493Z,14.00
2019-02-22T15:00:14.899Z,14.00
2019-02-22T15:02:41.288Z,13.90
2019-02-22T15:05:09.229Z,13.80
2019-02-22T15:07:35.506Z,13.80
2019-02-22T15:10:02.151Z,13.70
2019-02-22T15:12:28.290Z,13.60
2019-02-22T15:14:54.707Z,13.60
2019-02-22T15:17:23.004Z,13.50
2019-02-22T15:19:49.151Z,13.50
2019-02-22T15:22:15.292Z,13.50
2019-02-22T15:24:41.437Z,13.40
2019-02-22T15:27:07.585Z,13.40
2019-02-22T15:29:33.726Z,13.30
2019-02-22T15:32:00.887Z,13.30
2019-02-22T15:34:27.045Z,13.30
2019-02-22T15:36:54.220Z,13.30
2019-02-22T15:39:20.452Z,13.30
2019-02-22T15:41:47.096Z,13.30
2019-02-22T15:44:13.286Z,13.20
2019-02-22T15:46:39.448Z,13.20
2019-02-22T15:49:05.945Z,13.20
2019-02-22T15:51:32.160Z,13.20
2019-02-22T15:53:58.639Z,13.20
2019-02-22T15:56:26.050Z,13.20
2019-02-22T15:58:52.211Z,13.20
2019-02-22T16:01:18.356Z,13.20
2019-02-22T16:04:01.383Z,13.20
2019-02-22T16:06:27.528Z,13.20
2019-02-22T16:08:53.670Z,13.20
2019-02-22T16:11:19.916Z,13.30
2019-02-22T16:13:46.065Z,13.20
2019-02-22T16:16:22.727Z,13.30
2019-02-22T16:18:40.597Z,13.40
2019-02-22T16:21:06.755Z,13.40
2019-02-22T16:23:33.144Z,13.30
2019-02-22T16:25:59.294Z,13.30
2019-02-22T16:28:25.479Z,13.30
2019-02-22T16:30:51.638Z,13.30
2019-02-22T16:33:18.886Z,13.30
2019-02-22T16:35:45.344Z,13.20
2019-02-22T16:38:11.500Z,13.20
2019-02-22T16:40:37.639Z,13.20
2019-02-22T16:43:04.164Z,13.10
2019-02-22T16:45:30.305Z,13.10
2019-02-22T16:47:56.456Z,13.10
2019-02-22T16:50:22.613Z,13.10
2019-02-22T16:52:48.773Z,13.10
2019-02-22T16:55:15.491Z,13.00
2019-02-22T16:57:41.643Z,13.00
2019-02-22T17:00:10.247Z,13.00
2019-02-22T17:02:36.790Z,12.90
2019-02-22T17:05:05.063Z,12.90
2019-02-22T17:07:31.618Z,12.90
2019-02-22T17:09:57.797Z,12.80
2019-02-22T17:12:23.951Z,12.80
2019-02-22T17:14:50.118Z,12.70
2019-02-22T17:17:16.486Z,12.70
2019-02-22T17:19:42.656Z,12.60
2019-02-22T17:22:09.730Z,12.60
2019-02-22T17:24:36.377Z,12.60
2019-02-22T17:27:02.527Z,12.60
2019-02-22T17:29:28.687Z,12.60
2019-02-22T17:31:54.830Z,12.50
2019-02-22T17:34:20.987Z,12.60
2019-02-22T17:36:47.435Z,12.50
2019-02-22T17:39:13.844Z,12.50
2019-02-22T17:41:42.668Z,12.50
2019-02-22T17:44:08.354Z,12.50
2019-02-22T17:46:35.909Z,12.50
2019-02-22T17:49:02.065Z,12.50
2019-02-22T17:51:28.213Z,12.50
2019-02-22T17:53:54.478Z,12.50
2019-02-22T17:56:20.927Z,12.50
2019-02-22T17:58:47.312Z,12.50
2019-02-22T18:01:13.469Z,12.50
2019-02-22T18:03:39.615Z,12.40
2019-02-22T18:06:06.055Z,12.40
2019-02-22T18:08:32.197Z,12.50
2019-02-22T18:10:58.352Z,12.40
2019-02-22T18:13:24.832Z,12.40
2019-02-22T18:15:50.987Z,12.40
2019-02-22T18:18:17.130Z,12.40
2019-02-22T18:20:43.293Z,12.30
2019-02-22T18:23:09.439Z,12.30
2019-02-22T18:25:35.600Z,12.30
2019-02-22T18:28:01.856Z,12.30
2019-02-22T18:30:28.115Z,12.20
2019-02-22T18:32:54.575Z,12.20
2019-02-22T18:35:20.868Z,12.20
2019-02-22T18:37:47.335Z,12.20
2019-02-22T18:40:17.309Z,12.10
2019-02-22T18:42:43.467Z,12.10
2019-02-22T18:45:09.829Z,12.10
2019-02-22T18:47:35.990Z,12.10
2019-02-22T18:50:06.060Z,12.00
2019-02-22T18:52:32.458Z,11.90
2019-02-22T18:54:58.599Z,11.80
2019-02-22T18:57:24.758Z,11.80
2019-02-22T18:59:50.900Z,11.80
2019-02-22T19:02:17.064Z,11.70
2019-02-22T19:04:43.234Z,11.70
2019-02-22T19:07:09.391Z,11.70
2019-02-22T19:09:35.531Z,11.60
2019-02-22T19:12:01.686Z,11.50
2019-02-22T19:14:28.123Z,11.40
2019-02-22T19:16:55.382Z,11.40
2019-02-22T19:19:21.521Z,11.40
2019-02-22T19:21:48.101Z,11.40
2019-02-22T19:24:14.366Z,11.30
2019-02-22T19:26:40.533Z,11.30
2019-02-22T19:29:06.676Z,11.20
2019-02-22T19:31:32.834Z,11.20
2019-02-22T19:33:59.087Z,11.00
2019-02-22T19:36:25.232Z,10.90
2019-02-22T19:38:51.393Z,10.80
2019-02-22T19:41:17.544Z,10.70
2019-02-22T19:43:43.992Z,10.70
2019-02-22T19:46:10.134Z,10.60
2019-02-22T19:48:36.292Z,10.50
2019-02-22T19:51:33.649Z,10.50
2019-02-22T19:53:59.802Z,10.50
2019-02-22T19:56:25.981Z,10.60
2019-02-22T19:58:52.183Z,10.70
2019-02-22T20:01:18.339Z,10.70
2019-02-22T20:03:44.488Z,10.70
2019-02-22T20:06:10.972Z,10.70
2019-02-22T20:08:37.155Z,10.70
2019-02-22T20:11:04.401Z,10.70
2019-02-22T20:13:30.652Z,10.70
2019-02-22T20:15:56.823Z,10.60
2019-02-22T20:18:22.986Z,10.60
2019-02-22T20:20:49.183Z,10.60
2019-02-22T20:23:15.522Z,10.60
2019-02-22T20:25:41.675Z,10.50
2019-02-22T20:28:08.127Z,10.50
2019-02-22T20:30:35.416Z,10.50
2019-02-22T20:33:01.582Z,10.40
2019-02-22T20:35:28.450Z,10.40
2019-02-22T20:37:54.801Z,10.40
2019-02-22T20:40:21.210Z,10.40
2019-02-22T20:42:47.756Z,10.30
2019-02-22T20:45:14.036Z,10.30
2019-02-22T20:47:40.412Z,10.30
2019-02-22T20:50:10.673Z,10.20
2019-02-22T20:52:36.927Z,10.20
2019-02-22T20:55:05.002Z,10.20
2019-02-22T20:57:31.406Z,10.20
2019-02-22T20:59:57.571Z,10.20
2019-02-22T21:02:23.743Z,10.20
2019-02-22T21:04:50.219Z,10.20
2019-02-22T21:07:16.631Z,10.10
2019-02-22T21:09:42.837Z,10.10
2019-02-22T21:12:09.087Z,10.10
2019-02-22T21:14:35.239Z,10.10
2019-02-22T21:17:01.427Z,10.10
2019-02-22T21:19:27.580Z,10.00
2019-02-22T21:21:53.728Z,10.00
2019-02-22T21:24:19.877Z,10.00
2019-02-22T21:26:46.034Z,10.00
2019-02-22T21:29:12.293Z,9.90
2019-02-22T21:31:38.704Z,9.90
2019-02-22T21:34:05.138Z,9.90
2019-02-22T21:36:31.290Z,9.90
2019-02-22T21:38:57.442Z,9.80
2019-02-22T21:41:23.667Z,9.80
2019-02-22T21:43:50.168Z,9.80
2019-02-22T21:46:16.548Z,9.80
2019-02-22T21:48:43.120Z,9.80
2019-02-22T21:51:09.315Z,9.70
2019-02-22T21:53:35.465Z,9.70
2019-02-22T21:56:01.618Z,9.60
2019-02-22T21:58:27.864Z,9.60
2019-02-22T22:00:54.016Z,9.60
2019-02-22T22:03:20.164Z,9.50
2019-02-22T22:05:46.334Z,9.50
2019-02-22T22:08:13.479Z,9.50
2019-02-22T22:10:39.891Z,9.50
2019-02-22T22:13:06.050Z,9.40
2019-02-22T22:15:32.206Z,9.40
2019-02-22T22:17:58.365Z,9.40
2019-02-22T22:20:24.523Z,9.30
2019-02-22T22:22:50.755Z,9.30
2019-02-22T22:25:16.949Z,9.20
2019-02-22T22:27:43.191Z,9.20
2019-02-22T22:30:13.613Z,9.10
2019-02-22T22:32:39.815Z,9.10
2019-02-22T22:35:08.616Z,9.10
2019-02-22T22:37:35.771Z,9.10
2019-02-22T22:40:02.332Z,9.10
2019-02-22T22:42:28.611Z,9.00
2019-02-22T22:44:54.749Z,9.00
2019-02-22T22:47:20.892Z,8.90
2019-02-22T22:49:47.034Z,9.00
2019-02-22T22:52:13.199Z,9.00
2019-02-22T22:54:39.366Z,8.90
2019-02-22T22:57:05.511Z,8.90
2019-02-22T22:59:31.695Z,8.80
2019-02-22T23:01:58.137Z,8.80
2019-02-22T23:04:24.488Z,8.80
2019-02-22T23:06:50.652Z,8.80
2019-02-22T23:09:18.404Z,8.70
2019-02-22T23:11:44.791Z,8.70
2019-02-22T23:14:10.948Z,8.60
2019-02-22T23:16:37.099Z,8.60
2019-02-22T23:19:04.250Z,8.60
2019-02-22T23:21:30.394Z,8.50
2019-02-22T23:23:56.794Z,8.50
2019-02-22T23:26:22.930Z,8.50
2019-02-22T23:28:49.070Z,8.50
2019-02-22T23:31:15.227Z,8.50
2019-02-22T23:33:42.709Z,8.50
2019-02-22T23:36:08.974Z,8.40
2019-02-22T23:38:35.131Z,8.40
2019-02-22T23:41:01.273Z,8.40
2019-02-22T23:43:27.411Z,8.30
2019-02-22T23:45:53.579Z,8.30
2019-02-22T23:48:19.729Z,8.30
2019-02-22T23:50:45.995Z,8.30
2019-02-22T23:53:12.133Z,8.30
2019-02-22T23:55:38.282Z,8.30
2019-02-22T23:58:04.419Z,8.20
